sensor_id;sensor_type;location;lat;lon;timestamp;P1;durP1;ratioP1;P2;durP2;ratioP2
7821;SDS011;3956;50.558;9.678;2022-08-21T00:02:14;5.23;;;4.03;;
7821;SDS011;3956;50.558;9.678;2022-08-21T00:04:44;6.43;;;3.50;;
7821;SDS011;3956;50.558;9.678;2022-08-21T00:07:21;4.80;;;4.40;;
7821;SDS011;3956;50.558;9.678;2022-08-21T00:09:50;4.10;;;3.50;;
7821;SDS011;3956;50.558;9.678;2022-08-21T00:12:19;4.30;;;3.87;;
7821;SDS011;3956;50.558;9.678;2022-08-21T00:14:47;7.70;;;4.60;;
7821;SDS011;3956;50.558;9.678;2022-08-21T00:17:23;4.67;;;4.00;;
7821;SDS011;3956;50.558;9.678;2022-08-21T00:19:52;6.03;;;4.00;;
7821;SDS011;3956;50.558;9.678;2022-08-21T00:22:20;6.30;;;4.20;;
7821;SDS011;3956;50.558;9.678;2022-08-21T00:24:48;4.73;;;3.77;;
7821;SDS011;3956;50.558;9.678;2022-08-21T00:27:17;4.53;;;3.87;;
7821;SDS011;3956;50.558;9.678;2022-08-21T00:29:45;5.10;;;4.00;;
7821;SDS011;3956;50.558;9.678;2022-08-21T00:32:18;6.27;;;4.03;;
7821;SDS011;3956;50.558;9.678;2022-08-21T00:34:50;5.70;;;3.80;;
7821;SDS011;3956;50.558;9.678;2022-08-21T00:37:18;4.37;;;3.60;;
7821;SDS011;3956;50.558;9.678;2022-08-21T00:39:48;5.23;;;4.30;;
7821;SDS011;3956;50.558;9.678;2022-08-21T00:42:17;4.30;;;3.90;;
7821;SDS011;3956;50.558;9.678;2022-08-21T00:44:47;4.97;;;4.33;;
7821;SDS011;3956;50.558;9.678;2022-08-21T00:47:16;6.47;;;4.50;;
7821;SDS011;3956;50.558;9.678;2022-08-21T00:49:45;4.40;;;4.00;;
7821;SDS011;3956;50.558;9.678;2022-08-21T00:52:15;4.57;;;4.17;;
7821;SDS011;3956;50.558;9.678;2022-08-21T00:54:48;4.47;;;4.07;;
7821;SDS011;3956;50.558;9.678;2022-08-21T00:57:19;7.03;;;4.43;;
7821;SDS011;3956;50.558;9.678;2022-08-21T00:59:53;4.57;;;4.17;;
7821;SDS011;3956;50.558;9.678;2022-08-21T01:02:24;4.43;;;4.03;;
7821;SDS011;3956;50.558;9.678;2022-08-21T01:04:53;4.67;;;4.27;;
7821;SDS011;3956;50.558;9.678;2022-08-21T01:07:23;4.87;;;4.10;;
7821;SDS011;3956;50.558;9.678;2022-08-21T01:09:53;7.33;;;4.20;;
7821;SDS011;3956;50.558;9.678;2022-08-21T01:12:21;7.10;;;4.20;;
7821;SDS011;3956;50.558;9.678;2022-08-21T01:14:50;5.13;;;4.23;;
7821;SDS011;3956;50.558;9.678;2022-08-21T01:17:18;4.90;;;4.43;;
7821;SDS011;3956;50.558;9.678;2022-08-21T01:19:48;4.43;;;4.03;;
7821;SDS011;3956;50.558;9.678;2022-08-21T01:22:18;4.60;;;4.20;;
7821;SDS011;3956;50.558;9.678;2022-08-21T01:24:46;4.73;;;4.10;;
7821;SDS011;3956;50.558;9.678;2022-08-21T01:27:16;7.67;;;4.77;;
7821;SDS011;3956;50.558;9.678;2022-08-21T01:29:48;6.03;;;4.30;;
7821;SDS011;3956;50.558;9.678;2022-08-21T01:32:22;5.23;;;4.37;;
7821;SDS011;3956;50.558;9.678;2022-08-21T01:34:50;5.60;;;3.97;;
7821;SDS011;3956;50.558;9.678;2022-08-21T01:37:21;4.43;;;4.03;;
7821;SDS011;3956;50.558;9.678;2022-08-21T01:39:50;6.77;;;3.83;;
7821;SDS011;3956;50.558;9.678;2022-08-21T01:42:19;4.27;;;3.73;;
7821;SDS011;3956;50.558;9.678;2022-08-21T01:44:48;7.57;;;4.03;;
7821;SDS011;3956;50.558;9.678;2022-08-21T01:47:21;5.87;;;3.80;;
7821;SDS011;3956;50.558;9.678;2022-08-21T01:49:50;6.37;;;3.90;;
7821;SDS011;3956;50.558;9.678;2022-08-21T01:52:19;4.40;;;3.53;;
7821;SDS011;3956;50.558;9.678;2022-08-21T01:54:49;4.17;;;3.50;;
7821;SDS011;3956;50.558;9.678;2022-08-21T01:57:21;5.53;;;3.63;;
7821;SDS011;3956;50.558;9.678;2022-08-21T01:59:51;8.73;;;3.80;;
7821;SDS011;3956;50.558;9.678;2022-08-21T02:02:20;4.63;;;3.33;;
7821;SDS011;3956;50.558;9.678;2022-08-21T02:04:48;4.93;;;3.30;;
7821;SDS011;3956;50.558;9.678;2022-08-21T02:07:16;5.10;;;3.57;;
7821;SDS011;3956;50.558;9.678;2022-08-21T02:09:45;3.87;;;3.50;;
7821;SDS011;3956;50.558;9.678;2022-08-21T02:12:15;4.23;;;3.73;;
7821;SDS011;3956;50.558;9.678;2022-08-21T02:14:43;11.30;;;7.60;;
7821;SDS011;3956;50.558;9.678;2022-08-21T02:17:11;4.83;;;3.57;;
7821;SDS011;3956;50.558;9.678;2022-08-21T02:19:40;5.87;;;3.77;;
7821;SDS011;3956;50.558;9.678;2022-08-21T02:22:09;4.97;;;4.07;;
7821;SDS011;3956;50.558;9.678;2022-08-21T02:24:38;4.27;;;3.87;;
7821;SDS011;3956;50.558;9.678;2022-08-21T02:27:22;4.27;;;3.80;;
7821;SDS011;3956;50.558;9.678;2022-08-21T02:29:52;4.83;;;4.10;;
7821;SDS011;3956;50.558;9.678;2022-08-21T02:32:22;4.30;;;3.90;;
7821;SDS011;3956;50.558;9.678;2022-08-21T02:34:50;4.40;;;4.00;;
7821;SDS011;3956;50.558;9.678;2022-08-21T02:37:18;5.97;;;4.17;;
7821;SDS011;3956;50.558;9.678;2022-08-21T02:39:47;4.83;;;3.80;;
7821;SDS011;3956;50.558;9.678;2022-08-21T02:42:16;4.53;;;3.80;;
7821;SDS011;3956;50.558;9.678;2022-08-21T02:44:46;5.67;;;4.00;;
7821;SDS011;3956;50.558;9.678;2022-08-21T02:47:15;6.10;;;4.10;;
7821;SDS011;3956;50.558;9.678;2022-08-21T02:49:43;4.40;;;4.00;;
7821;SDS011;3956;50.558;9.678;2022-08-21T02:52:12;4.33;;;3.70;;
7821;SDS011;3956;50.558;9.678;2022-08-21T02:54:40;5.47;;;3.90;;
7821;SDS011;3956;50.558;9.678;2022-08-21T02:57:09;4.50;;;3.90;;
7821;SDS011;3956;50.558;9.678;2022-08-21T02:59:37;6.07;;;3.60;;
7821;SDS011;3956;50.558;9.678;2022-08-21T03:02:08;4.53;;;4.10;;
7821;SDS011;3956;50.558;9.678;2022-08-21T03:04:37;4.30;;;3.73;;
7821;SDS011;3956;50.558;9.678;2022-08-21T03:07:11;6.33;;;4.40;;
7821;SDS011;3956;50.558;9.678;2022-08-21T03:09:41;4.73;;;3.73;;
7821;SDS011;3956;50.558;9.678;2022-08-21T03:12:21;4.30;;;3.90;;
7821;SDS011;3956;50.558;9.678;2022-08-21T03:14:55;8.43;;;4.23;;
7821;SDS011;3956;50.558;9.678;2022-08-21T03:17:25;6.90;;;4.10;;
7821;SDS011;3956;50.558;9.678;2022-08-21T03:19:55;6.97;;;3.73;;
7821;SDS011;3956;50.558;9.678;2022-08-21T03:22:24;6.97;;;3.80;;
7821;SDS011;3956;50.558;9.678;2022-08-21T03:24:54;4.50;;;4.00;;
7821;SDS011;3956;50.558;9.678;2022-08-21T03:27:23;4.37;;;3.80;;
7821;SDS011;3956;50.558;9.678;2022-08-21T03:29:55;5.10;;;3.77;;
7821;SDS011;3956;50.558;9.678;2022-08-21T03:32:24;4.40;;;3.90;;
7821;SDS011;3956;50.558;9.678;2022-08-21T03:34:53;8.80;;;3.73;;
7821;SDS011;3956;50.558;9.678;2022-08-21T03:37:22;4.33;;;3.93;;
7821;SDS011;3956;50.558;9.678;2022-08-21T03:39:51;4.87;;;3.60;;
7821;SDS011;3956;50.558;9.678;2022-08-21T03:42:20;4.87;;;3.63;;
7821;SDS011;3956;50.558;9.678;2022-08-21T03:44:48;5.83;;;4.03;;
7821;SDS011;3956;50.558;9.678;2022-08-21T03:47:16;6.77;;;4.13;;
7821;SDS011;3956;50.558;9.678;2022-08-21T03:49:46;4.57;;;4.17;;
7821;SDS011;3956;50.558;9.678;2022-08-21T03:52:15;4.87;;;3.93;;
7821;SDS011;3956;50.558;9.678;2022-08-21T03:54:44;5.10;;;4.10;;
7821;SDS011;3956;50.558;9.678;2022-08-21T03:57:13;5.10;;;4.60;;
7821;SDS011;3956;50.558;9.678;2022-08-21T03:59:42;6.00;;;4.30;;
7821;SDS011;3956;50.558;9.678;2022-08-21T04:02:10;4.50;;;4.10;;
7821;SDS011;3956;50.558;9.678;2022-08-21T04:04:43;4.47;;;4.07;;
7821;SDS011;3956;50.558;9.678;2022-08-21T04:07:14;4.60;;;4.03;;
7821;SDS011;3956;50.558;9.678;2022-08-21T04:09:43;6.63;;;4.70;;
7821;SDS011;3956;50.558;9.678;2022-08-21T04:12:12;8.63;;;4.90;;
7821;SDS011;3956;50.558;9.678;2022-08-21T04:14:40;8.67;;;5.33;;
7821;SDS011;3956;50.558;9.678;2022-08-21T04:17:09;6.57;;;5.87;;
7821;SDS011;3956;50.558;9.678;2022-08-21T04:19:37;7.50;;;5.80;;
7821;SDS011;3956;50.558;9.678;2022-08-21T04:22:06;6.90;;;5.13;;
7821;SDS011;3956;50.558;9.678;2022-08-21T04:24:35;5.03;;;4.37;;
7821;SDS011;3956;50.558;9.678;2022-08-21T04:27:04;5.60;;;4.40;;
7821;SDS011;3956;50.558;9.678;2022-08-21T04:29:32;5.23;;;4.37;;
7821;SDS011;3956;50.558;9.678;2022-08-21T04:32:05;5.03;;;4.53;;
7821;SDS011;3956;50.558;9.678;2022-08-21T04:34:34;6.70;;;4.10;;
7821;SDS011;3956;50.558;9.678;2022-08-21T04:37:02;5.70;;;4.07;;
7821;SDS011;3956;50.558;9.678;2022-08-21T04:39:31;6.53;;;4.60;;
7821;SDS011;3956;50.558;9.678;2022-08-21T04:42:01;5.63;;;4.60;;
7821;SDS011;3956;50.558;9.678;2022-08-21T04:44:29;6.50;;;4.83;;
7821;SDS011;3956;50.558;9.678;2022-08-21T04:46:58;4.67;;;4.27;;
7821;SDS011;3956;50.558;9.678;2022-08-21T04:49:26;5.50;;;4.33;;
7821;SDS011;3956;50.558;9.678;2022-08-21T04:51:54;4.53;;;4.13;;
7821;SDS011;3956;50.558;9.678;2022-08-21T04:54:23;6.50;;;5.03;;
7821;SDS011;3956;50.558;9.678;2022-08-21T04:56:52;7.47;;;4.47;;
7821;SDS011;3956;50.558;9.678;2022-08-21T04:59:26;4.60;;;4.17;;
7821;SDS011;3956;50.558;9.678;2022-08-21T05:01:59;6.20;;;4.20;;
7821;SDS011;3956;50.558;9.678;2022-08-21T05:04:29;4.33;;;3.80;;
7821;SDS011;3956;50.558;9.678;2022-08-21T05:07:01;5.53;;;3.63;;
7821;SDS011;3956;50.558;9.678;2022-08-21T05:09:33;5.30;;;3.80;;
7821;SDS011;3956;50.558;9.678;2022-08-21T05:12:02;5.07;;;4.10;;
7821;SDS011;3956;50.558;9.678;2022-08-21T05:14:32;6.43;;;4.30;;
7821;SDS011;3956;50.558;9.678;2022-08-21T05:17:01;4.57;;;4.07;;
7821;SDS011;3956;50.558;9.678;2022-08-21T05:19:30;5.23;;;4.30;;
7821;SDS011;3956;50.558;9.678;2022-08-21T05:21:59;5.43;;;4.27;;
7821;SDS011;3956;50.558;9.678;2022-08-21T05:24:28;6.77;;;6.10;;
7821;SDS011;3956;50.558;9.678;2022-08-21T05:26:56;6.50;;;5.90;;
7821;SDS011;3956;50.558;9.678;2022-08-21T05:29:29;5.70;;;5.10;;
7821;SDS011;3956;50.558;9.678;2022-08-21T05:31:59;5.87;;;4.90;;
7821;SDS011;3956;50.558;9.678;2022-08-21T05:34:27;6.10;;;5.07;;
7821;SDS011;3956;50.558;9.678;2022-08-21T05:36:56;5.17;;;4.70;;
7821;SDS011;3956;50.558;9.678;2022-08-21T05:39:31;8.30;;;4.97;;
7821;SDS011;3956;50.558;9.678;2022-08-21T05:42:19;4.60;;;4.20;;
7821;SDS011;3956;50.558;9.678;2022-08-21T05:44:48;5.90;;;5.10;;
7821;SDS011;3956;50.558;9.678;2022-08-21T05:47:17;5.17;;;4.47;;
7821;SDS011;3956;50.558;9.678;2022-08-21T05:49:46;5.50;;;5.00;;
7821;SDS011;3956;50.558;9.678;2022-08-21T05:52:18;5.33;;;4.83;;
7821;SDS011;3956;50.558;9.678;2022-08-21T05:54:47;5.10;;;4.60;;
7821;SDS011;3956;50.558;9.678;2022-08-21T05:57:16;4.63;;;4.23;;
7821;SDS011;3956;50.558;9.678;2022-08-21T05:59:44;5.30;;;4.80;;
7821;SDS011;3956;50.558;9.678;2022-08-21T06:02:12;5.63;;;4.77;;
7821;SDS011;3956;50.558;9.678;2022-08-21T06:04:42;5.77;;;5.20;;
7821;SDS011;3956;50.558;9.678;2022-08-21T06:07:11;5.30;;;4.80;;
7821;SDS011;3956;50.558;9.678;2022-08-21T06:09:39;5.70;;;5.20;;
7821;SDS011;3956;50.558;9.678;2022-08-21T06:12:09;6.00;;;5.40;;
7821;SDS011;3956;50.558;9.678;2022-08-21T06:14:39;5.67;;;5.17;;
7821;SDS011;3956;50.558;9.678;2022-08-21T06:17:10;5.93;;;5.43;;
7821;SDS011;3956;50.558;9.678;2022-08-21T06:19:40;5.63;;;5.00;;
7821;SDS011;3956;50.558;9.678;2022-08-21T06:22:12;5.40;;;4.90;;
7821;SDS011;3956;50.558;9.678;2022-08-21T06:24:41;6.93;;;5.00;;
7821;SDS011;3956;50.558;9.678;2022-08-21T06:27:09;6.80;;;6.07;;
7821;SDS011;3956;50.558;9.678;2022-08-21T06:29:37;6.27;;;5.67;;
7821;SDS011;3956;50.558;9.678;2022-08-21T06:32:10;6.60;;;5.93;;
7821;SDS011;3956;50.558;9.678;2022-08-21T06:34:41;6.30;;;5.70;;
7821;SDS011;3956;50.558;9.678;2022-08-21T06:37:09;5.33;;;4.83;;
7821;SDS011;3956;50.558;9.678;2022-08-21T06:39:39;6.07;;;5.50;;
7821;SDS011;3956;50.558;9.678;2022-08-21T06:42:12;6.00;;;5.50;;
7821;SDS011;3956;50.558;9.678;2022-08-21T06:44:42;6.17;;;5.57;;
7821;SDS011;3956;50.558;9.678;2022-08-21T06:47:11;7.77;;;5.73;;
7821;SDS011;3956;50.558;9.678;2022-08-21T06:49:39;6.10;;;5.50;;
7821;SDS011;3956;50.558;9.678;2022-08-21T06:52:08;5.97;;;5.40;;
7821;SDS011;3956;50.558;9.678;2022-08-21T06:54:39;6.10;;;5.60;;
7821;SDS011;3956;50.558;9.678;2022-08-21T06:57:08;6.50;;;5.90;;
7821;SDS011;3956;50.558;9.678;2022-08-21T06:59:37;7.63;;;5.63;;
7821;SDS011;3956;50.558;9.678;2022-08-21T07:02:05;6.50;;;5.47;;
7821;SDS011;3956;50.558;9.678;2022-08-21T07:04:41;6.80;;;5.10;;
7821;SDS011;3956;50.558;9.678;2022-08-21T07:07:14;6.70;;;5.63;;
7821;SDS011;3956;50.558;9.678;2022-08-21T07:09:56;5.80;;;5.30;;
7821;SDS011;3956;50.558;9.678;2022-08-21T07:12:59;5.57;;;4.73;;
7821;SDS011;3956;50.558;9.678;2022-08-21T07:15:33;5.20;;;4.43;;
7821;SDS011;3956;50.558;9.678;2022-08-21T07:18:04;7.63;;;5.00;;
7821;SDS011;3956;50.558;9.678;2022-08-21T07:20:51;6.33;;;4.40;;
7821;SDS011;3956;50.558;9.678;2022-08-21T07:23:36;4.53;;;4.13;;
7821;SDS011;3956;50.558;9.678;2022-08-21T07:26:22;4.60;;;4.20;;
7821;SDS011;3956;50.558;9.678;2022-08-21T07:28:59;6.43;;;5.80;;
7821;SDS011;3956;50.558;9.678;2022-08-21T07:31:39;5.87;;;4.90;;
7821;SDS011;3956;50.558;9.678;2022-08-21T07:34:19;5.27;;;4.77;;
7821;SDS011;3956;50.558;9.678;2022-08-21T07:37:01;6.33;;;5.10;;
7821;SDS011;3956;50.558;9.678;2022-08-21T07:39:42;8.27;;;5.07;;
7821;SDS011;3956;50.558;9.678;2022-08-21T07:42:17;5.50;;;4.90;;
7821;SDS011;3956;50.558;9.678;2022-08-21T07:45:05;6.47;;;4.70;;
7821;SDS011;3956;50.558;9.678;2022-08-21T07:47:51;6.93;;;5.10;;
7821;SDS011;3956;50.558;9.678;2022-08-21T07:50:24;5.77;;;5.17;;
7821;SDS011;3956;50.558;9.678;2022-08-21T07:52:56;7.03;;;5.10;;
7821;SDS011;3956;50.558;9.678;2022-08-21T07:58:40;6.10;;;5.07;;
7821;SDS011;3956;50.558;9.678;2022-08-21T08:01:22;5.70;;;4.77;;
7821;SDS011;3956;50.558;9.678;2022-08-21T08:04:13;6.63;;;4.90;;
7821;SDS011;3956;50.558;9.678;2022-08-21T08:06:57;5.37;;;4.27;;
7821;SDS011;3956;50.558;9.678;2022-08-21T08:09:29;5.83;;;4.80;;
7821;SDS011;3956;50.558;9.678;2022-08-21T08:12:06;8.03;;;4.60;;
7821;SDS011;3956;50.558;9.678;2022-08-21T08:14:51;4.77;;;4.30;;
7821;SDS011;3956;50.558;9.678;2022-08-21T08:17:24;8.27;;;4.53;;
7821;SDS011;3956;50.558;9.678;2022-08-21T08:19:58;6.83;;;4.63;;
7821;SDS011;3956;50.558;9.678;2022-08-21T08:22:33;6.33;;;4.03;;
7821;SDS011;3956;50.558;9.678;2022-08-21T08:25:09;6.03;;;4.10;;
7821;SDS011;3956;50.558;9.678;2022-08-21T08:27:54;7.63;;;3.90;;
7821;SDS011;3956;50.558;9.678;2022-08-21T08:30:46;5.93;;;3.47;;
7821;SDS011;3956;50.558;9.678;2022-08-21T08:33:22;5.93;;;3.53;;
7821;SDS011;3956;50.558;9.678;2022-08-21T08:35:57;4.53;;;3.70;;
7821;SDS011;3956;50.558;9.678;2022-08-21T08:38:41;6.63;;;3.60;;
7821;SDS011;3956;50.558;9.678;2022-08-21T08:41:26;5.27;;;3.23;;
7821;SDS011;3956;50.558;9.678;2022-08-21T08:44:21;4.40;;;3.03;;
7821;SDS011;3956;50.558;9.678;2022-08-21T08:47:20;5.87;;;3.00;;
7821;SDS011;3956;50.558;9.678;2022-08-21T08:49:52;6.00;;;2.87;;
7821;SDS011;3956;50.558;9.678;2022-08-21T08:52:48;3.80;;;3.10;;
7821;SDS011;3956;50.558;9.678;2022-08-21T08:55:48;6.63;;;3.03;;
7821;SDS011;3956;50.558;9.678;2022-08-21T08:58:28;13.03;;;3.43;;
7821;SDS011;3956;50.558;9.678;2022-08-21T09:01:12;5.73;;;3.17;;
7821;SDS011;3956;50.558;9.678;2022-08-21T09:03:52;4.90;;;2.80;;
7821;SDS011;3956;50.558;9.678;2022-08-21T09:06:36;6.17;;;3.20;;
7821;SDS011;3956;50.558;9.678;2022-08-21T09:09:34;7.20;;;3.40;;
7821;SDS011;3956;50.558;9.678;2022-08-21T09:12:19;4.97;;;2.80;;
7821;SDS011;3956;50.558;9.678;2022-08-21T09:15:12;6.63;;;3.00;;
7821;SDS011;3956;50.558;9.678;2022-08-21T09:18:02;6.67;;;3.87;;
7821;SDS011;3956;50.558;9.678;2022-08-21T09:23:55;7.60;;;4.20;;
7821;SDS011;3956;50.558;9.678;2022-08-21T09:26:54;8.57;;;4.00;;
7821;SDS011;3956;50.558;9.678;2022-08-21T09:29:40;11.03;;;3.40;;
7821;SDS011;3956;50.558;9.678;2022-08-21T09:32:35;4.93;;;3.30;;
7821;SDS011;3956;50.558;9.678;2022-08-21T09:35:18;4.47;;;3.13;;
7821;SDS011;3956;50.558;9.678;2022-08-21T09:38:22;8.13;;;3.33;;
7821;SDS011;3956;50.558;9.678;2022-08-21T09:41:00;7.80;;;3.50;;
7821;SDS011;3956;50.558;9.678;2022-08-21T09:43:51;9.53;;;3.33;;
7821;SDS011;3956;50.558;9.678;2022-08-21T09:46:49;8.67;;;3.00;;
7821;SDS011;3956;50.558;9.678;2022-08-21T09:49:46;7.87;;;3.03;;
7821;SDS011;3956;50.558;9.678;2022-08-21T09:53:00;6.00;;;3.07;;
7821;SDS011;3956;50.558;9.678;2022-08-21T09:58:42;6.90;;;3.00;;
7821;SDS011;3956;50.558;9.678;2022-08-21T10:01:23;4.60;;;3.00;;
7821;SDS011;3956;50.558;9.678;2022-08-21T10:07:07;5.13;;;2.80;;
7821;SDS011;3956;50.558;9.678;2022-08-21T10:09:57;6.53;;;3.07;;
7821;SDS011;3956;50.558;9.678;2022-08-21T10:12:44;5.53;;;3.23;;
7821;SDS011;3956;50.558;9.678;2022-08-21T10:15:33;7.20;;;3.60;;
7821;SDS011;3956;50.558;9.678;2022-08-21T10:18:26;5.00;;;3.27;;
7821;SDS011;3956;50.558;9.678;2022-08-21T10:21:42;7.67;;;3.60;;
7821;SDS011;3956;50.558;9.678;2022-08-21T10:24:40;6.50;;;3.30;;
7821;SDS011;3956;50.558;9.678;2022-08-21T10:27:21;6.87;;;3.17;;
7821;SDS011;3956;50.558;9.678;2022-08-21T10:30:16;6.77;;;3.50;;
7821;SDS011;3956;50.558;9.678;2022-08-21T10:33:06;6.47;;;3.20;;
7821;SDS011;3956;50.558;9.678;2022-08-21T10:35:49;8.63;;;3.47;;
7821;SDS011;3956;50.558;9.678;2022-08-21T10:39:05;7.07;;;3.00;;
7821;SDS011;3956;50.558;9.678;2022-08-21T10:42:17;6.57;;;2.70;;
7821;SDS011;3956;50.558;9.678;2022-08-21T10:45:25;8.80;;;3.53;;
7821;SDS011;3956;50.558;9.678;2022-08-21T10:48:14;5.83;;;2.93;;
7821;SDS011;3956;50.558;9.678;2022-08-21T10:51:06;6.87;;;2.90;;
7821;SDS011;3956;50.558;9.678;2022-08-21T10:53:43;6.40;;;3.00;;
7821;SDS011;3956;50.558;9.678;2022-08-21T10:56:32;8.03;;;3.10;;
7821;SDS011;3956;50.558;9.678;2022-08-21T10:59:43;6.67;;;2.87;;
7821;SDS011;3956;50.558;9.678;2022-08-21T11:02:26;5.10;;;2.83;;
7821;SDS011;3956;50.558;9.678;2022-08-21T11:05:18;7.70;;;3.73;;
7821;SDS011;3956;50.558;9.678;2022-08-21T11:08:18;5.43;;;3.03;;
7821;SDS011;3956;50.558;9.678;2022-08-21T11:11:12;5.37;;;2.70;;
7821;SDS011;3956;50.558;9.678;2022-08-21T11:14:34;6.60;;;2.90;;
7821;SDS011;3956;50.558;9.678;2022-08-21T11:18:10;3.87;;;2.87;;
7821;SDS011;3956;50.558;9.678;2022-08-21T11:21:01;6.03;;;2.53;;
7821;SDS011;3956;50.558;9.678;2022-08-21T11:23:57;5.30;;;2.53;;
7821;SDS011;3956;50.558;9.678;2022-08-21T11:26:53;6.40;;;2.93;;
7821;SDS011;3956;50.558;9.678;2022-08-21T11:29:34;5.83;;;3.00;;
7821;SDS011;3956;50.558;9.678;2022-08-21T11:32:31;5.90;;;2.80;;
7821;SDS011;3956;50.558;9.678;2022-08-21T11:35:27;4.37;;;2.37;;
7821;SDS011;3956;50.558;9.678;2022-08-21T11:38:13;5.50;;;2.80;;
7821;SDS011;3956;50.558;9.678;2022-08-21T11:41:14;4.50;;;2.57;;
7821;SDS011;3956;50.558;9.678;2022-08-21T11:44:03;6.13;;;2.80;;
7821;SDS011;3956;50.558;9.678;2022-08-21T11:46:47;8.50;;;3.13;;
7821;SDS011;3956;50.558;9.678;2022-08-21T11:52:57;4.83;;;2.93;;
7821;SDS011;3956;50.558;9.678;2022-08-21T11:55:43;5.13;;;2.77;;
7821;SDS011;3956;50.558;9.678;2022-08-21T11:58:38;6.23;;;2.63;;
7821;SDS011;3956;50.558;9.678;2022-08-21T12:01:27;7.07;;;2.90;;
7821;SDS011;3956;50.558;9.678;2022-08-21T12:04:04;4.77;;;2.70;;
7821;SDS011;3956;50.558;9.678;2022-08-21T12:06:42;4.73;;;2.57;;
7821;SDS011;3956;50.558;9.678;2022-08-21T12:09:32;8.07;;;2.97;;
7821;SDS011;3956;50.558;9.678;2022-08-21T12:12:04;6.73;;;3.37;;
7821;SDS011;3956;50.558;9.678;2022-08-21T12:14:39;5.90;;;2.80;;
7821;SDS011;3956;50.558;9.678;2022-08-21T12:17:16;5.97;;;2.90;;
7821;SDS011;3956;50.558;9.678;2022-08-21T12:19:56;4.83;;;2.63;;
7821;SDS011;3956;50.558;9.678;2022-08-21T12:22:37;6.47;;;2.60;;
7821;SDS011;3956;50.558;9.678;2022-08-21T12:25:08;4.27;;;2.90;;
7821;SDS011;3956;50.558;9.678;2022-08-21T12:27:44;4.60;;;2.90;;
7821;SDS011;3956;50.558;9.678;2022-08-21T12:30:22;7.53;;;2.97;;
7821;SDS011;3956;50.558;9.678;2022-08-21T12:33:02;3.67;;;2.70;;
7821;SDS011;3956;50.558;9.678;2022-08-21T12:35:33;4.67;;;2.30;;
7821;SDS011;3956;50.558;9.678;2022-08-21T12:38:14;3.93;;;2.80;;
7821;SDS011;3956;50.558;9.678;2022-08-21T12:40:46;6.43;;;2.73;;
7821;SDS011;3956;50.558;9.678;2022-08-21T12:43:20;5.17;;;2.53;;
7821;SDS011;3956;50.558;9.678;2022-08-21T12:45:51;5.27;;;2.40;;
7821;SDS011;3956;50.558;9.678;2022-08-21T12:48:21;4.67;;;2.70;;
7821;SDS011;3956;50.558;9.678;2022-08-21T12:50:54;6.30;;;2.40;;
7821;SDS011;3956;50.558;9.678;2022-08-21T12:53:28;6.77;;;2.47;;
7821;SDS011;3956;50.558;9.678;2022-08-21T12:56:01;6.30;;;2.43;;
7821;SDS011;3956;50.558;9.678;2022-08-21T12:58:31;4.87;;;2.50;;
7821;SDS011;3956;50.558;9.678;2022-08-21T13:01:01;5.80;;;2.60;;
7821;SDS011;3956;50.558;9.678;2022-08-21T13:03:31;4.50;;;2.40;;
7821;SDS011;3956;50.558;9.678;2022-08-21T13:06:03;5.93;;;2.73;;
7821;SDS011;3956;50.558;9.678;2022-08-21T13:08:37;5.40;;;2.70;;
7821;SDS011;3956;50.558;9.678;2022-08-21T13:11:12;6.03;;;2.67;;
7821;SDS011;3956;50.558;9.678;2022-08-21T13:14:00;3.90;;;2.83;;
7821;SDS011;3956;50.558;9.678;2022-08-21T13:16:31;5.03;;;2.50;;
7821;SDS011;3956;50.558;9.678;2022-08-21T13:19:02;5.17;;;2.80;;
7821;SDS011;3956;50.558;9.678;2022-08-21T13:21:33;3.90;;;2.80;;
7821;SDS011;3956;50.558;9.678;2022-08-21T13:24:18;4.07;;;2.43;;
7821;SDS011;3956;50.558;9.678;2022-08-21T13:27:17;3.63;;;2.40;;
7821;SDS011;3956;50.558;9.678;2022-08-21T13:29:48;4.30;;;2.13;;
7821;SDS011;3956;50.558;9.678;2022-08-21T13:32:31;5.63;;;2.80;;
7821;SDS011;3956;50.558;9.678;2022-08-21T13:35:07;4.50;;;2.43;;
7821;SDS011;3956;50.558;9.678;2022-08-21T13:37:41;6.63;;;2.83;;
7821;SDS011;3956;50.558;9.678;2022-08-21T13:40:15;7.13;;;2.57;;
7821;SDS011;3956;50.558;9.678;2022-08-21T13:42:47;4.77;;;2.70;;
7821;SDS011;3956;50.558;9.678;2022-08-21T13:45:18;4.97;;;2.53;;
7821;SDS011;3956;50.558;9.678;2022-08-21T13:47:50;6.00;;;2.80;;
7821;SDS011;3956;50.558;9.678;2022-08-21T13:50:22;4.93;;;2.50;;
7821;SDS011;3956;50.558;9.678;2022-08-21T13:52:57;4.77;;;2.70;;
7821;SDS011;3956;50.558;9.678;2022-08-21T13:55:36;4.33;;;2.50;;
7821;SDS011;3956;50.558;9.678;2022-08-21T13:58:06;4.07;;;2.53;;
7821;SDS011;3956;50.558;9.678;2022-08-21T14:00:43;4.57;;;2.70;;
7821;SDS011;3956;50.558;9.678;2022-08-21T14:03:13;5.27;;;2.67;;
7821;SDS011;3956;50.558;9.678;2022-08-21T14:05:55;4.77;;;2.97;;
7821;SDS011;3956;50.558;9.678;2022-08-21T14:08:27;9.10;;;3.20;;
7821;SDS011;3956;50.558;9.678;2022-08-21T14:11:02;5.70;;;2.60;;
7821;SDS011;3956;50.558;9.678;2022-08-21T14:13:34;4.10;;;2.20;;
7821;SDS011;3956;50.558;9.678;2022-08-21T14:16:11;4.40;;;2.47;;
7821;SDS011;3956;50.558;9.678;2022-08-21T14:18:43;3.77;;;2.60;;
7821;SDS011;3956;50.558;9.678;2022-08-21T14:21:13;6.00;;;2.80;;
7821;SDS011;3956;50.558;9.678;2022-08-21T14:23:58;4.60;;;2.40;;
7821;SDS011;3956;50.558;9.678;2022-08-21T14:26:31;6.27;;;2.97;;
7821;SDS011;3956;50.558;9.678;2022-08-21T14:29:02;5.20;;;3.00;;
7821;SDS011;3956;50.558;9.678;2022-08-21T14:31:36;3.37;;;2.30;;
7821;SDS011;3956;50.558;9.678;2022-08-21T14:34:09;4.40;;;2.60;;
7821;SDS011;3956;50.558;9.678;2022-08-21T14:36:45;4.47;;;2.30;;
7821;SDS011;3956;50.558;9.678;2022-08-21T14:39:14;7.40;;;2.90;;
7821;SDS011;3956;50.558;9.678;2022-08-21T14:41:45;8.80;;;2.40;;
7821;SDS011;3956;50.558;9.678;2022-08-21T14:44:15;4.40;;;2.30;;
7821;SDS011;3956;50.558;9.678;2022-08-21T14:46:44;3.73;;;2.30;;
7821;SDS011;3956;50.558;9.678;2022-08-21T14:49:22;3.07;;;2.30;;
7821;SDS011;3956;50.558;9.678;2022-08-21T14:51:53;5.03;;;2.57;;
7821;SDS011;3956;50.558;9.678;2022-08-21T14:54:24;5.37;;;2.70;;
7821;SDS011;3956;50.558;9.678;2022-08-21T14:56:58;3.23;;;2.27;;
7821;SDS011;3956;50.558;9.678;2022-08-21T14:59:30;3.50;;;2.23;;
7821;SDS011;3956;50.558;9.678;2022-08-21T15:01:59;6.93;;;2.27;;
7821;SDS011;3956;50.558;9.678;2022-08-21T15:04:30;4.80;;;2.20;;
7821;SDS011;3956;50.558;9.678;2022-08-21T15:06:59;2.70;;;2.00;;
7821;SDS011;3956;50.558;9.678;2022-08-21T15:09:27;3.13;;;2.20;;
7821;SDS011;3956;50.558;9.678;2022-08-21T15:11:56;3.80;;;2.30;;
7821;SDS011;3956;50.558;9.678;2022-08-21T15:14:29;3.77;;;2.17;;
7821;SDS011;3956;50.558;9.678;2022-08-21T15:16:59;3.83;;;2.27;;
7821;SDS011;3956;50.558;9.678;2022-08-21T15:19:29;4.53;;;2.20;;
7821;SDS011;3956;50.558;9.678;2022-08-21T15:21:58;3.37;;;2.27;;
7821;SDS011;3956;50.558;9.678;2022-08-21T15:24:26;5.57;;;2.10;;
7821;SDS011;3956;50.558;9.678;2022-08-21T15:26:55;6.20;;;2.33;;
7821;SDS011;3956;50.558;9.678;2022-08-21T15:29:27;5.17;;;2.33;;
7821;SDS011;3956;50.558;9.678;2022-08-21T15:31:59;2.33;;;1.90;;
7821;SDS011;3956;50.558;9.678;2022-08-21T15:34:29;4.10;;;2.30;;
7821;SDS011;3956;50.558;9.678;2022-08-21T15:36:58;4.40;;;2.00;;
7821;SDS011;3956;50.558;9.678;2022-08-21T15:39:27;4.60;;;2.20;;
7821;SDS011;3956;50.558;9.678;2022-08-21T15:42:03;4.73;;;2.60;;
7821;SDS011;3956;50.558;9.678;2022-08-21T15:44:38;5.33;;;2.20;;
7821;SDS011;3956;50.558;9.678;2022-08-21T15:47:08;3.33;;;2.00;;
7821;SDS011;3956;50.558;9.678;2022-08-21T15:49:40;4.40;;;2.03;;
7821;SDS011;3956;50.558;9.678;2022-08-21T15:52:11;4.63;;;2.10;;
7821;SDS011;3956;50.558;9.678;2022-08-21T15:54:40;4.80;;;2.40;;
7821;SDS011;3956;50.558;9.678;2022-08-21T15:57:09;4.93;;;2.20;;
7821;SDS011;3956;50.558;9.678;2022-08-21T15:59:41;4.77;;;2.20;;
7821;SDS011;3956;50.558;9.678;2022-08-21T16:02:12;3.33;;;2.03;;
7821;SDS011;3956;50.558;9.678;2022-08-21T16:04:42;3.90;;;2.10;;
7821;SDS011;3956;50.558;9.678;2022-08-21T16:07:11;4.03;;;2.30;;
7821;SDS011;3956;50.558;9.678;2022-08-21T16:09:40;6.47;;;2.43;;
7821;SDS011;3956;50.558;9.678;2022-08-21T16:12:09;3.63;;;2.17;;
7821;SDS011;3956;50.558;9.678;2022-08-21T16:14:41;3.33;;;1.90;;
7821;SDS011;3956;50.558;9.678;2022-08-21T16:17:10;5.30;;;2.20;;
7821;SDS011;3956;50.558;9.678;2022-08-21T16:19:38;4.30;;;2.20;;
7821;SDS011;3956;50.558;9.678;2022-08-21T16:22:07;2.17;;;1.80;;
7821;SDS011;3956;50.558;9.678;2022-08-21T16:24:35;4.10;;;2.03;;